createdAt,value
2023-04-07T00:01:59.812Z,9.40
2023-04-07T00:04:28.503Z,9.40
2023-04-07T00:06:56.954Z,9.50
2023-04-07T00:09:25.198Z,9.50
2023-04-07T00:11:53.612Z,9.60
2023-04-07T00:14:21.914Z,9.60
2023-04-07T00:16:51.436Z,9.60
2023-04-07T00:19:19.607Z,9.70
2023-04-07T00:21:47.771Z,9.70
2023-04-07T00:24:18.539Z,9.70
2023-04-07T00:26:52.301Z,9.70
2023-04-07T00:29:20.519Z,9.80
2023-04-07T00:31:48.727Z,9.80
2023-04-07T00:34:18.299Z,9.80
2023-04-07T00:36:51.888Z,9.70
2023-04-07T00:39:21.148Z,9.70
2023-04-07T00:41:49.354Z,9.70
2023-04-07T00:44:17.905Z,9.70
2023-04-07T00:46:48.553Z,9.70
2023-04-07T00:49:18.827Z,9.70
2023-04-07T00:51:47.714Z,9.70
2023-04-07T00:54:16.493Z,9.70
2023-04-07T00:56:44.742Z,9.70
2023-04-07T00:59:13.362Z,9.70
2023-04-07T01:01:47.036Z,9.70
2023-04-07T01:04:25.577Z,9.70
2023-04-07T01:06:56.928Z,9.60
2023-04-07T01:09:39.384Z,9.60
2023-04-07T01:12:13.638Z,9.60
2023-04-07T01:14:48.035Z,9.60
2023-04-07T01:17:37.978Z,9.60
2023-04-07T01:20:11.642Z,9.50
2023-04-07T01:22:43.861Z,9.50
2023-04-07T01:25:40.957Z,9.40
2023-04-07T01:28:28.065Z,9.40
2023-04-07T01:30:59.309Z,9.40
2023-04-07T01:33:32.138Z,9.40
2023-04-07T01:36:02.001Z,9.40
2023-04-07T01:38:31.037Z,9.40
2023-04-07T01:41:00.320Z,9.40
2023-04-07T01:43:29.405Z,9.40
2023-04-07T01:45:59.637Z,9.40
2023-04-07T01:48:28.184Z,9.40
2023-04-07T01:50:57.788Z,9.40
2023-04-07T01:53:26.888Z,9.40
2023-04-07T01:55:56.052Z,9.50
2023-04-07T01:58:25.672Z,9.50
2023-04-07T02:00:54.015Z,9.50
2023-04-07T02:03:32.406Z,9.50
2023-04-07T02:06:07.934Z,9.50
2023-04-07T02:08:39.146Z,9.40
2023-04-07T02:11:08.894Z,9.40
2023-04-07T02:13:39.615Z,9.40
2023-04-07T02:16:11.710Z,9.30
2023-04-07T02:18:42.806Z,9.30
2023-04-07T02:21:11.784Z,9.30
2023-04-07T02:23:39.971Z,9.30
2023-04-07T02:26:08.253Z,9.20
2023-04-07T02:28:36.450Z,9.20
2023-04-07T02:31:04.674Z,9.20
2023-04-07T02:33:34.011Z,9.30
2023-04-07T02:36:03.559Z,9.30
2023-04-07T02:38:31.749Z,9.30
2023-04-07T02:40:59.972Z,9.40
2023-04-07T02:43:31.141Z,9.40
2023-04-07T02:45:59.439Z,9.40
2023-04-07T02:48:27.713Z,9.40
2023-04-07T02:50:56.007Z,9.40
2023-04-07T02:53:25.770Z,9.40
2023-04-07T02:55:53.933Z,9.40
2023-04-07T02:58:22.201Z,9.40
2023-04-07T03:00:50.935Z,9.40
2023-04-07T03:03:23.080Z,9.40
2023-04-07T03:06:06.272Z,9.30
2023-04-07T03:08:42.500Z,9.20
2023-04-07T03:11:10.874Z,9.20
2023-04-07T03:13:39.656Z,9.10
2023-04-07T03:16:08.028Z,9.10
2023-04-07T03:18:45.566Z,9.10
2023-04-07T03:21:14.255Z,9.10
2023-04-07T03:23:44.320Z,9.10
2023-04-07T03:26:12.533Z,9.00
2023-04-07T03:28:40.710Z,9.10
2023-04-07T03:31:09.044Z,9.10
2023-04-07T03:33:37.344Z,9.20
2023-04-07T03:36:06.273Z,9.10
2023-04-07T03:38:34.744Z,9.10
2023-04-07T03:41:06.845Z,9.10
2023-04-07T03:43:35.859Z,9.10
2023-04-07T03:46:04.062Z,9.00
2023-04-07T03:48:32.994Z,9.00
2023-04-07T03:51:07.873Z,9.00
2023-04-07T03:53:37.402Z,9.00
2023-04-07T03:56:19.060Z,9.00
2023-04-07T03:58:50.615Z,9.00
2023-04-07T04:01:27.305Z,9.00
2023-04-07T04:03:57.560Z,9.00
2023-04-07T04:06:28.548Z,9.00
2023-04-07T04:09:04.426Z,9.00
2023-04-07T04:11:37.745Z,8.90
2023-04-07T04:14:07.047Z,8.90
2023-04-07T04:16:37.565Z,8.70
2023-04-07T04:19:12.602Z,8.60
2023-04-07T04:21:40.838Z,8.50
2023-04-07T04:24:09.498Z,8.50
2023-04-07T04:26:39.860Z,8.50
2023-04-07T04:29:13.052Z,8.50
2023-04-07T04:31:43.858Z,8.40
2023-04-07T04:34:12.953Z,8.40
2023-04-07T04:36:42.815Z,8.40
2023-04-07T04:39:11.442Z,8.40
2023-04-07T04:41:41.615Z,8.30
2023-04-07T04:44:12.328Z,8.30
2023-04-07T04:46:43.017Z,8.30
2023-04-07T04:49:11.859Z,8.20
2023-04-07T04:51:41.883Z,8.20
2023-04-07T04:54:17.117Z,8.20
2023-04-07T04:56:48.386Z,8.20
2023-04-07T04:59:17.284Z,8.30
2023-04-07T05:02:01.990Z,8.20
2023-04-07T05:04:30.379Z,8.20
2023-04-07T05:07:11.003Z,8.20
2023-04-07T05:09:39.232Z,8.20
2023-04-07T05:12:09.112Z,8.30
2023-04-07T05:14:43.221Z,8.30
2023-04-07T05:17:11.585Z,8.30
2023-04-07T05:19:40.438Z,8.30
2023-04-07T05:22:16.417Z,8.30
2023-04-07T05:24:47.883Z,8.30
2023-04-07T05:27:17.632Z,8.40
2023-04-07T05:29:50.452Z,8.40
2023-04-07T05:32:29.252Z,8.40
2023-04-07T05:34:59.008Z,8.40
2023-04-07T05:37:32.073Z,8.50
2023-04-07T05:40:04.070Z,8.60
2023-04-07T05:42:33.782Z,8.70
2023-04-07T05:45:03.861Z,8.80
2023-04-07T05:47:33.147Z,9.00
2023-04-07T05:50:01.921Z,9.10
2023-04-07T05:52:32.148Z,9.10
2023-04-07T05:55:10.333Z,9.10
2023-04-07T05:57:40.681Z,9.30
2023-04-07T06:00:10.874Z,9.50
2023-04-07T06:02:42.776Z,9.50
2023-04-07T06:05:18.090Z,9.70
2023-04-07T06:07:47.768Z,9.90
2023-04-07T06:10:16.731Z,10.00
2023-04-07T06:12:46.932Z,10.10
2023-04-07T06:15:15.559Z,10.00
2023-04-07T06:17:45.804Z,10.30
2023-04-07T06:20:14.374Z,10.40
2023-04-07T06:22:42.659Z,10.50
2023-04-07T06:25:11.255Z,10.40
2023-04-07T06:27:39.507Z,10.40
2023-04-07T06:30:10.840Z,10.20
2023-04-07T06:32:39.134Z,10.10
2023-04-07T06:35:07.991Z,10.10
2023-04-07T06:37:36.475Z,9.80
2023-04-07T06:40:05.340Z,9.70
2023-04-07T06:42:33.631Z,9.70
2023-04-07T06:45:26.525Z,9.70
2023-04-07T06:47:54.952Z,9.80
2023-04-07T06:50:23.447Z,10.10
2023-04-07T06:52:51.648Z,10.10
2023-04-07T06:55:19.921Z,9.90
2023-04-07T06:57:48.282Z,9.80
2023-04-07T07:00:16.909Z,9.90
2023-04-07T07:02:46.780Z,10.10
2023-04-07T07:05:15.250Z,10.30
2023-04-07T07:07:43.460Z,10.20
2023-04-07T07:10:12.133Z,10.10
2023-04-07T07:12:40.374Z,10.30
2023-04-07T07:15:09.591Z,10.60
2023-04-07T07:17:37.865Z,10.90
2023-04-07T07:20:09.064Z,11.10
2023-04-07T07:22:37.529Z,11.20
2023-04-07T07:25:06.589Z,11.40
2023-04-07T07:27:35.060Z,11.20
2023-04-07T07:30:03.317Z,10.90
2023-04-07T07:32:31.616Z,10.60
2023-04-07T07:35:00.244Z,10.70
2023-04-07T07:37:29.892Z,10.80
2023-04-07T07:39:58.101Z,10.80
2023-04-07T07:42:26.429Z,10.80
2023-04-07T07:44:54.701Z,10.80
2023-04-07T07:47:23.436Z,10.80
2023-04-07T07:49:51.607Z,11.00
2023-04-07T07:52:20.750Z,11.10
2023-04-07T07:54:51.625Z,11.20
2023-04-07T07:57:19.930Z,11.00
2023-04-07T07:59:48.123Z,10.70
2023-04-07T08:02:16.567Z,10.60
2023-04-07T08:04:44.971Z,10.70
2023-04-07T08:07:13.317Z,10.90
2023-04-07T08:09:41.584Z,11.10
2023-04-07T08:12:11.374Z,11.20
2023-04-07T08:14:39.676Z,11.50
2023-04-07T08:17:08.101Z,11.70
2023-04-07T08:19:36.488Z,11.80
2023-04-07T08:22:04.814Z,12.20
2023-04-07T08:24:33.163Z,12.40
2023-04-07T08:27:02.223Z,12.50
2023-04-07T08:29:32.420Z,12.40
2023-04-07T08:32:00.745Z,12.10
2023-04-07T08:34:29.056Z,11.90
2023-04-07T08:36:57.433Z,11.80
2023-04-07T08:39:26.628Z,11.80
2023-04-07T08:41:57.084Z,11.80
2023-04-07T08:44:29.218Z,12.10
2023-04-07T08:47:00.650Z,12.00
2023-04-07T08:49:30.074Z,12.20
2023-04-07T08:52:01.864Z,12.60
2023-04-07T08:54:33.889Z,13.20
2023-04-07T08:57:03.795Z,13.60
2023-04-07T08:59:33.160Z,13.80
2023-04-07T09:02:03.882Z,13.70
2023-04-07T09:04:32.211Z,13.70
2023-04-07T09:07:02.145Z,13.70
2023-04-07T09:09:30.889Z,13.30
2023-04-07T09:11:59.342Z,13.30
2023-04-07T09:14:27.761Z,13.10
2023-04-07T09:16:56.508Z,12.00
2023-04-07T09:19:30.832Z,12.10
2023-04-07T09:21:59.195Z,11.80
2023-04-07T09:24:28.936Z,12.10
2023-04-07T09:27:11.189Z,12.30
2023-04-07T09:29:40.058Z,12.80
2023-04-07T09:32:08.320Z,12.90
2023-04-07T09:34:41.042Z,12.30
2023-04-07T09:37:10.672Z,12.10
2023-04-07T09:39:51.600Z,11.90
2023-04-07T09:42:20.500Z,11.70
2023-04-07T09:44:48.844Z,11.80
2023-04-07T09:47:17.964Z,11.70
2023-04-07T09:49:55.159Z,11.80
2023-04-07T09:52:26.820Z,11.80
2023-04-07T09:54:56.644Z,11.80
2023-04-07T09:57:25.749Z,12.20
2023-04-07T09:59:55.956Z,12.20
2023-04-07T10:02:26.818Z,12.30
2023-04-07T10:04:56.649Z,12.50
2023-04-07T10:07:25.100Z,12.30
2023-04-07T10:09:53.334Z,12.20
2023-04-07T10:12:21.823Z,12.20
2023-04-07T10:14:51.295Z,11.90
2023-04-07T10:17:20.812Z,11.60
2023-04-07T10:19:51.751Z,11.70
2023-04-07T10:22:21.973Z,11.40
2023-04-07T10:24:55.801Z,11.10
2023-04-07T10:27:32.155Z,10.90
2023-04-07T10:30:01.348Z,10.90
2023-04-07T10:32:30.440Z,10.90
2023-04-07T10:35:01.054Z,11.10
2023-04-07T10:37:30.731Z,11.30
2023-04-07T10:40:35.513Z,11.60
2023-04-07T10:43:04.214Z,11.70
2023-04-07T10:45:56.166Z,11.90
2023-04-07T10:48:24.746Z,12.00
2023-04-07T10:51:15.902Z,12.20
2023-04-07T10:54:23.917Z,12.80
2023-04-07T10:57:14.169Z,13.20
2023-04-07T11:00:04.267Z,13.30
2023-04-07T11:02:36.221Z,13.40
2023-04-07T11:05:04.992Z,13.40
2023-04-07T11:07:55.151Z,13.50
2023-04-07T11:10:23.501Z,13.60
2023-04-07T11:13:04.438Z,13.60
2023-04-07T11:15:34.070Z,14.00
2023-04-07T11:18:10.521Z,14.20
2023-04-07T11:20:47.817Z,14.40
2023-04-07T11:23:17.226Z,14.50
2023-04-07T11:25:46.559Z,14.30
2023-04-07T11:28:16.727Z,14.20
2023-04-07T11:30:51.643Z,14.00
2023-04-07T11:33:22.168Z,14.10
2023-04-07T11:35:52.438Z,14.40
2023-04-07T11:38:21.327Z,14.40
2023-04-07T11:40:49.608Z,14.80
2023-04-07T11:43:20.995Z,14.50
2023-04-07T11:46:06.078Z,14.70
2023-04-07T11:48:36.179Z,14.30
2023-04-07T11:51:04.836Z,14.70
2023-04-07T11:53:34.353Z,14.90
2023-04-07T11:56:09.657Z,14.70
2023-04-07T11:58:39.755Z,14.00
2023-04-07T12:01:09.569Z,13.70
2023-04-07T12:03:38.686Z,13.40
2023-04-07T12:06:07.420Z,13.40
2023-04-07T12:08:43.656Z,13.40
2023-04-07T12:11:12.296Z,13.30
2023-04-07T12:13:42.570Z,13.40
2023-04-07T12:16:10.768Z,13.20
2023-04-07T12:18:39.015Z,13.20
2023-04-07T12:21:07.221Z,13.10
2023-04-07T12:23:35.411Z,12.80
2023-04-07T12:26:03.647Z,12.70
2023-04-07T12:28:31.886Z,12.70
2023-04-07T12:31:01.467Z,12.80
2023-04-07T12:33:29.673Z,12.80
2023-04-07T12:35:58.681Z,13.00
2023-04-07T12:38:27.022Z,13.00
2023-04-07T12:40:55.254Z,12.70
2023-04-07T12:43:23.604Z,13.00
2023-04-07T12:45:51.816Z,13.00
2023-04-07T12:48:21.504Z,13.20
2023-04-07T12:50:49.726Z,13.40
2023-04-07T12:53:17.882Z,13.40
2023-04-07T12:55:47.283Z,13.50
2023-04-07T12:58:17.328Z,13.60
2023-04-07T13:00:46.833Z,14.00
2023-04-07T13:03:15.211Z,14.00
2023-04-07T13:05:44.786Z,13.70
2023-04-07T13:08:13.093Z,13.20
2023-04-07T13:10:41.428Z,13.40
2023-04-07T13:13:09.714Z,13.60
2023-04-07T13:15:37.882Z,13.80
2023-04-07T13:18:06.477Z,13.80
2023-04-07T13:20:34.866Z,13.90
2023-04-07T13:23:08.348Z,13.90
2023-04-07T13:25:38.255Z,13.90
2023-04-07T13:28:06.674Z,14.00
2023-04-07T13:30:35.440Z,13.70
2023-04-07T13:33:03.735Z,13.70
2023-04-07T13:35:35.813Z,13.90
2023-04-07T13:38:05.960Z,14.20
2023-04-07T13:40:34.243Z,14.00
2023-04-07T13:43:02.799Z,13.90
2023-04-07T13:45:31.014Z,13.80
2023-04-07T13:47:59.333Z,13.70
2023-04-07T13:50:27.696Z,13.70
2023-04-07T13:52:56.012Z,13.60
2023-04-07T13:55:25.607Z,13.60
2023-04-07T13:57:54.205Z,13.50
2023-04-07T14:00:22.448Z,13.80
2023-04-07T14:02:50.746Z,14.00
2023-04-07T14:05:19.125Z,14.40
2023-04-07T14:07:48.049Z,14.60
2023-04-07T14:10:16.323Z,14.90
2023-04-07T14:12:46.339Z,15.00
2023-04-07T14:15:17.678Z,15.20
2023-04-07T14:17:46.570Z,15.00
2023-04-07T14:20:14.857Z,15.10
2023-04-07T14:22:43.069Z,14.70
2023-04-07T14:25:12.529Z,14.30
2023-04-07T14:27:40.830Z,14.30
2023-04-07T14:30:11.870Z,14.20
2023-04-07T14:32:40.192Z,14.20
2023-04-07T14:35:09.350Z,14.70
2023-04-07T14:37:37.875Z,15.20
2023-04-07T14:40:07.531Z,15.40
2023-04-07T14:42:36.925Z,15.60
2023-04-07T14:45:05.647Z,15.20
2023-04-07T14:47:35.534Z,14.80
2023-04-07T14:50:03.806Z,14.90
2023-04-07T14:52:32.432Z,14.60
2023-04-07T14:55:00.688Z,14.20
2023-04-07T14:57:28.969Z,14.00
2023-04-07T14:59:57.200Z,13.60
2023-04-07T15:02:25.513Z,13.30
2023-04-07T15:04:55.428Z,13.20
2023-04-07T15:07:23.824Z,12.80
2023-04-07T15:09:52.010Z,12.40
2023-04-07T15:12:20.524Z,12.30
2023-04-07T15:14:53.047Z,11.90
2023-04-07T15:17:27.529Z,11.80
2023-04-07T15:20:02.867Z,11.80
2023-04-07T15:22:31.446Z,11.70
2023-04-07T15:24:59.890Z,11.70
2023-04-07T15:27:28.130Z,11.90
2023-04-07T15:29:56.391Z,11.80
2023-04-07T15:32:24.644Z,11.80
2023-04-07T15:34:53.024Z,11.80
2023-04-07T15:37:22.577Z,12.00
2023-04-07T15:39:52.320Z,12.10
2023-04-07T15:42:20.646Z,12.20
2023-04-07T15:44:48.884Z,12.30
2023-04-07T15:47:17.172Z,12.40
2023-04-07T15:49:45.401Z,12.30
2023-04-07T15:52:14.883Z,12.10
2023-04-07T15:54:44.436Z,11.90
2023-04-07T15:57:13.212Z,11.90
2023-04-07T15:59:41.399Z,12.00
2023-04-07T16:02:10.833Z,12.00
2023-04-07T16:04:40.774Z,11.90
2023-04-07T16:07:09.145Z,11.90
2023-04-07T16:09:37.312Z,11.90
2023-04-07T16:12:07.467Z,12.10
2023-04-07T16:14:36.251Z,12.30
2023-04-07T16:17:04.589Z,12.40
2023-04-07T16:19:32.868Z,12.30
2023-04-07T16:22:01.062Z,12.30
2023-04-07T16:24:29.312Z,12.00
2023-04-07T16:26:57.549Z,12.10
2023-04-07T16:29:27.196Z,12.10
2023-04-07T16:31:55.667Z,12.10
2023-04-07T16:34:23.991Z,12.20
2023-04-07T16:36:52.262Z,12.20
2023-04-07T16:39:20.443Z,12.10
2023-04-07T16:41:49.121Z,11.90
2023-04-07T16:44:17.374Z,11.90
2023-04-07T16:46:47.051Z,11.80
2023-04-07T16:49:15.429Z,11.90
2023-04-07T16:51:43.606Z,12.10
2023-04-07T16:54:11.805Z,12.10
2023-04-07T16:56:40.611Z,12.10
2023-04-07T16:59:08.928Z,12.00
2023-04-07T17:01:41.498Z,12.10
2023-04-07T17:04:11.915Z,12.00
2023-04-07T17:06:40.114Z,12.00
2023-04-07T17:09:08.370Z,12.00
2023-04-07T17:11:36.597Z,12.00
2023-04-07T17:14:04.893Z,12.00
2023-04-07T17:16:33.069Z,11.90
2023-04-07T17:19:01.302Z,11.90
2023-04-07T17:21:31.272Z,11.80
2023-04-07T17:23:59.499Z,11.70
2023-04-07T17:26:27.690Z,11.50
2023-04-07T17:28:55.985Z,11.40
2023-04-07T17:31:24.237Z,11.30
2023-04-07T17:33:52.894Z,11.20
2023-04-07T17:36:21.102Z,11.20
2023-04-07T17:38:50.776Z,11.10
2023-04-07T17:41:19.397Z,11.00
2023-04-07T17:43:47.765Z,10.90
2023-04-07T17:46:16.194Z,10.90
2023-04-07T17:48:45.434Z,10.80
2023-04-07T17:51:15.365Z,11.00
2023-04-07T17:53:43.988Z,10.90
2023-04-07T17:56:13.703Z,10.90
2023-04-07T17:58:42.183Z,10.90
2023-04-07T18:01:10.796Z,10.50
2023-04-07T18:03:39.319Z,10.40
2023-04-07T18:06:09.303Z,10.60
2023-04-07T18:08:37.588Z,10.30
2023-04-07T18:11:07.221Z,10.20
2023-04-07T18:13:36.909Z,10.00
2023-04-07T18:16:08.182Z,10.00
2023-04-07T18:18:37.485Z,10.00
2023-04-07T18:21:06.957Z,9.80
2023-04-07T18:23:35.415Z,9.70
2023-04-07T18:26:04.720Z,9.70
2023-04-07T18:28:32.987Z,9.70
2023-04-07T18:31:06.133Z,9.70
2023-04-07T18:33:34.703Z,9.60
2023-04-07T18:36:06.615Z,9.60
2023-04-07T18:38:35.144Z,9.70
2023-04-07T18:41:03.927Z,9.80
2023-04-07T18:43:32.225Z,9.70
2023-04-07T18:46:01.939Z,9.60
2023-04-07T18:48:30.160Z,9.60
2023-04-07T18:50:58.392Z,9.50
2023-04-07T18:53:26.839Z,9.40
2023-04-07T18:55:55.043Z,9.50
2023-04-07T18:58:23.257Z,9.50
2023-04-07T19:00:53.009Z,9.50
2023-04-07T19:03:23.217Z,9.40
2023-04-07T19:05:52.652Z,9.40
2023-04-07T19:08:21.166Z,9.60
2023-04-07T19:10:50.993Z,9.60
2023-04-07T19:13:20.363Z,9.40
2023-04-07T19:15:48.784Z,9.40
2023-04-07T19:18:17.143Z,9.40
2023-04-07T19:20:47.093Z,9.40
2023-04-07T19:23:15.482Z,9.30
2023-04-07T19:25:45.785Z,9.40
2023-04-07T19:28:14.393Z,9.30
2023-04-07T19:30:42.680Z,9.30
2023-04-07T19:33:11.944Z,9.20
2023-04-07T19:35:40.469Z,9.30
2023-04-07T19:38:10.116Z,9.20
2023-04-07T19:40:38.509Z,9.20
2023-04-07T19:43:07.290Z,9.30
2023-04-07T19:45:35.603Z,9.30
2023-04-07T19:48:03.886Z,9.40
2023-04-07T19:50:32.195Z,9.40
2023-04-07T19:53:00.363Z,9.40
2023-04-07T19:55:30.484Z,9.30
2023-04-07T19:57:58.752Z,9.20
2023-04-07T20:00:27.242Z,9.20
2023-04-07T20:02:55.535Z,9.30
2023-04-07T20:05:23.871Z,9.30
2023-04-07T20:07:52.312Z,9.30
2023-04-07T20:10:20.512Z,9.30
2023-04-07T20:12:50.133Z,9.20
2023-04-07T20:15:18.482Z,9.20
2023-04-07T20:17:47.962Z,9.20
2023-04-07T20:20:17.813Z,9.20
2023-04-07T20:22:46.064Z,9.20
2023-04-07T20:25:14.336Z,9.30
2023-04-07T20:27:45.353Z,9.40
2023-04-07T20:30:14.944Z,9.50
2023-04-07T20:32:43.442Z,9.60
2023-04-07T20:35:12.531Z,9.70
2023-04-07T20:37:40.781Z,9.80
2023-04-07T20:40:10.078Z,9.70
2023-04-07T20:42:39.153Z,9.80
2023-04-07T20:45:08.125Z,9.60
2023-04-07T20:47:37.725Z,9.50
2023-04-07T20:50:06.960Z,9.50
2023-04-07T20:52:39.407Z,9.60
2023-04-07T20:55:08.485Z,9.70
2023-04-07T20:57:36.759Z,9.70
2023-04-07T21:00:05.995Z,9.80
2023-04-07T21:02:34.603Z,9.80
2023-04-07T21:05:04.705Z,9.80
2023-04-07T21:07:32.870Z,9.80
2023-04-07T21:10:01.051Z,9.80
2023-04-07T21:12:29.297Z,9.80
2023-04-07T21:14:57.496Z,9.90
2023-04-07T21:17:25.749Z,9.90
2023-04-07T21:19:53.980Z,9.90
2023-04-07T21:22:23.531Z,9.90
2023-04-07T21:24:55.097Z,9.90
2023-04-07T21:27:25.060Z,9.90
2023-04-07T21:29:53.261Z,9.80
2023-04-07T21:32:22.062Z,9.90
2023-04-07T21:34:53.365Z,9.80
2023-04-07T21:37:23.521Z,9.80
2023-04-07T21:39:53.966Z,9.80
2023-04-07T21:42:22.449Z,9.80
2023-04-07T21:44:50.650Z,9.70
2023-04-07T21:47:18.963Z,9.70
2023-04-07T21:49:47.181Z,9.70
2023-04-07T21:52:17.318Z,9.80
2023-04-07T21:54:46.932Z,9.70
2023-04-07T21:57:15.162Z,9.70
2023-04-07T21:59:43.390Z,9.70
2023-04-07T22:02:12.833Z,9.70
2023-04-07T22:04:41.130Z,9.60
2023-04-07T22:07:09.373Z,9.60
2023-04-07T22:09:37.989Z,9.60
2023-04-07T22:12:07.552Z,9.60
2023-04-07T22:14:35.830Z,9.50
2023-04-07T22:17:04.037Z,9.50
2023-04-07T22:19:32.265Z,9.40
2023-04-07T22:22:00.474Z,9.40
2023-04-07T22:24:28.704Z,9.40
2023-04-07T22:26:57.288Z,9.30
2023-04-07T22:29:27.116Z,9.40
2023-04-07T22:31:55.492Z,9.40
2023-04-07T22:34:23.715Z,9.40
2023-04-07T22:36:51.936Z,9.30
2023-04-07T22:39:20.225Z,9.20
2023-04-07T22:41:48.417Z,9.20
2023-04-07T22:44:16.580Z,9.20
2023-04-07T22:46:46.570Z,9.20
2023-04-07T22:49:14.970Z,9.20
2023-04-07T22:51:48.308Z,9.20
2023-04-07T22:54:16.684Z,9.20
2023-04-07T22:56:46.573Z,9.20
2023-04-07T22:59:14.845Z,9.20
2023-04-07T23:01:43.115Z,9.20
2023-04-07T23:04:12.878Z,9.20
2023-04-07T23:06:43.528Z,9.20
2023-04-07T23:09:12.132Z,9.20
2023-04-07T23:11:40.833Z,9.20
2023-04-07T23:14:09.159Z,9.10
2023-04-07T23:16:37.326Z,9.10
2023-04-07T23:19:06.023Z,9.10
2023-04-07T23:21:35.577Z,9.20
2023-04-07T23:24:03.809Z,9.10
2023-04-07T23:26:32.648Z,9.10
2023-04-07T23:29:00.913Z,9.10
2023-04-07T23:31:29.273Z,9.00
2023-04-07T23:33:58.708Z,9.00
2023-04-07T23:36:27.971Z,9.00
2023-04-07T23:38:57.579Z,9.00
2023-04-07T23:41:25.765Z,9.00
2023-04-07T23:43:53.982Z,8.90
2023-04-07T23:46:22.425Z,8.80
2023-04-07T23:48:50.902Z,8.90
2023-04-07T23:51:19.428Z,8.90
2023-04-07T23:53:47.665Z,8.80
2023-04-07T23:56:17.224Z,8.90
2023-04-07T23:58:45.439Z,8.90
